Thorp, Wisconsin
Current Conditions -  °F | °C
As of 10:35 PM on Saturday 20 Dec 2014 (Local Time) from KMDZ Reporting Station
Haze Haze  
Wind Chill: 19°   Ceiling: 500
Heat Index: 28°   Visibility: 4mi
Dew Point: 26°   Wind: 8mph
Humidity: 95%   Direction: 160°SSE
Pressure: 30.12"   Gusts: NA
Location:  44.96°N, 90.8°W
Report Text: KMDZ 210435Z AUTO 16007KT 4SM BR OVC005 M02/M03 A3012 RMK AO2 T10251032
Loading
Personal Weather Stations






























Interactive Weather Map New forecast layout! Learn more

10-Day Weather Forecast

Advertisements
Track Severe Weather on mobile